Time;durP1;ratioP1;P1;durP2;ratioP2;P2;SDS_P1;SDS_P2;PMS_P1;PMS_P2;Temp;Humidity;BMP_temperature;BMP_pressure;BME280_temperature;BME280_humidity;BME280_pressure;Samples;Min_cycle;Max_cycle;Signal;HPM_P1;HPM_P2
2023/02/22 00:02:27;;;;;;;12.47;8.50;;;;;;;10.23;58.46;95517.31;5041184;28;20290;-84
2023/02/22 00:04:54;;;;;;;12.37;8.80;;;;;;;10.26;58.21;95511.03;5041755;28;20209;-84
2023/02/22 00:07:22;;;;;;;11.57;8.17;;;;;;;10.29;58.08;95515.81;5047111;28;20198;-84
2023/02/22 00:09:50;;;;;;;9.27;7.70;;;;;;;10.34;57.52;95511.75;5047422;28;20202;-84
2023/02/22 00:12:16;;;;;;;12.83;8.00;;;;;;;10.35;57.97;95508.22;5047692;28;20866;-84
2023/02/22 00:14:43;;;;;;;11.90;8.73;;;;;;;10.23;58.55;95509.59;5047418;28;20201;-83
2023/02/22 00:17:12;;;;;;;11.27;8.13;;;;;;;10.29;58.22;95511.47;5028931;28;20197;-84
2023/02/22 00:19:38;;;;;;;10.80;7.73;;;;;;;10.26;58.26;95508.44;5027599;28;20236;-84
2023/02/22 00:22:05;;;;;;;11.20;8.07;;;;;;;10.23;57.60;95511.38;5045050;28;20272;-84
2023/02/22 00:24:34;;;;;;;10.40;7.60;;;;;;;10.11;58.45;95513.56;5043092;28;20204;-83
2023/02/22 00:27:02;;;;;;;9.03;7.20;;;;;;;10.10;58.58;95511.94;5027075;28;20592;-84
2023/02/22 00:29:29;;;;;;;9.47;7.50;;;;;;;10.09;58.35;95509.56;5028107;28;20290;-84
2023/02/22 00:31:55;;;;;;;11.70;8.00;;;;;;;10.00;58.47;95511.41;5027103;28;20197;-83
2023/02/22 00:34:23;;;;;;;14.77;7.53;;;;;;;10.03;58.54;95511.03;5043360;28;20206;-84
2023/02/22 00:36:50;;;;;;;7.90;6.83;;;;;;;10.03;57.89;95503.31;5040180;28;20260;-84
2023/02/22 00:39:17;;;;;;;9.37;6.60;;;;;;;10.01;58.43;95507.84;5034061;28;20231;-83
2023/02/22 00:41:44;;;;;;;10.60;7.40;;;;;;;10.04;57.76;95510.88;5026830;28;20229;-84
2023/02/22 00:44:11;;;;;;;11.30;7.30;;;;;;;9.92;58.70;95506.34;5042636;28;20200;-84
2023/02/22 00:46:38;;;;;;;10.17;6.00;;;;;;;9.93;58.28;95505.38;5046763;28;20217;-84
2023/02/22 00:49:05;;;;;;;9.00;6.30;;;;;;;9.93;58.62;95503.59;5030987;28;20226;-84
2023/02/22 00:51:32;;;;;;;7.87;5.47;;;;;;;9.97;58.10;95501.47;5034429;28;20193;-84
2023/02/22 00:53:59;;;;;;;9.77;5.57;;;;;;;9.88;58.69;95499.94;5038606;28;20228;-84
2023/02/22 00:56:25;;;;;;;7.33;6.00;;;;;;;9.94;58.26;95501.81;5046593;28;20222;-84
2023/02/22 00:58:52;;;;;;;8.60;6.17;;;;;;;9.92;58.50;95494.28;5032530;28;20603;-84
2023/02/22 01:01:20;;;;;;;6.60;5.07;;;;;;;9.94;58.03;95496.69;5026448;28;20952;-84
2023/02/22 01:03:47;;;;;;;6.13;4.47;;;;;;;9.95;57.87;95495.69;5039493;28;20851;-84
2023/02/22 01:06:14;;;;;;;5.77;4.33;;;;;;;9.95;57.63;95491.38;5047026;28;20205;-84
2023/02/22 01:08:44;;;;;;;7.33;4.67;;;;;;;9.93;57.59;95487.38;5033902;28;20252;-84
2023/02/22 01:11:11;;;;;;;7.13;5.07;;;;;;;9.97;57.81;95486.84;5026577;28;20226;-84
2023/02/22 01:13:38;;;;;;;5.13;4.20;;;;;;;9.99;56.98;95484.91;5037339;28;20229;-84
2023/02/22 01:16:07;;;;;;;7.00;4.20;;;;;;;9.98;57.00;95475.59;5046162;28;20627;-84
2023/02/22 01:18:35;;;;;;;4.83;3.60;;;;;;;9.99;57.32;95481.53;5045174;28;20642;-84
2023/02/22 01:21:02;;;;;;;9.23;4.37;;;;;;;9.87;57.31;95477.75;5035734;28;20246;-84
2023/02/22 01:23:28;;;;;;;5.33;3.93;;;;;;;9.83;57.43;95477.31;5026548;28;20225;-84
2023/02/22 01:25:55;;;;;;;5.93;4.47;;;;;;;9.83;57.43;95471.38;5034759;28;20556;-84
2023/02/22 01:28:22;;;;;;;6.53;4.93;;;;;;;9.79;58.07;95473.50;5046387;28;20205;-84
2023/02/22 01:30:49;;;;;;;7.77;5.00;;;;;;;9.85;58.13;95472.00;5039026;28;20281;-83
2023/02/22 01:33:16;;;;;;;6.33;5.23;;;;;;;9.89;57.88;95468.09;5046656;28;20534;-83
2023/02/22 01:35:45;;;;;;;5.77;4.50;;;;;;;9.96;57.39;95461.28;5041940;28;20202;-84
2023/02/22 01:38:12;;;;;;;6.20;4.50;;;;;;;10.01;57.67;95464.91;5045524;28;20206;-83
2023/02/22 01:40:41;;;;;;;8.30;5.00;;;;;;;10.01;57.92;95471.84;5041100;28;20284;-84
2023/02/22 01:43:18;;;;;;;5.43;4.93;;;;;;;9.99;57.65;95469.47;5030259;28;20317;-84
2023/02/22 01:45:52;;;;;;;8.97;5.30;;;;;;;9.87;57.89;95470.84;5025909;28;20209;-84
2023/02/22 01:48:25;;;;;;;7.10;5.47;;;;;;;9.78;57.84;95471.91;5037595;28;20212;-84
2023/02/22 01:50:56;;;;;;;5.03;4.47;;;;;;;9.67;58.00;95477.44;5048958;28;20198;-83
2023/02/22 01:53:28;;;;;;;6.83;4.40;;;;;;;9.60;57.92;95472.22;5049242;28;20225;-84
2023/02/22 01:55:55;;;;;;;8.30;4.70;;;;;;;9.47;58.71;95469.41;5035170;28;20214;-84
2023/02/22 01:58:24;;;;;;;5.77;4.57;;;;;;;9.44;58.71;95468.94;5041815;28;20284;-84
2023/02/22 02:00:51;;;;;;;4.97;4.27;;;;;;;9.35;58.92;95463.88;5049795;28;20205;-84
2023/02/22 02:03:22;;;;;;;4.63;3.70;;;;;;;9.39;58.76;95456.63;5040693;28;20229;-84
2023/02/22 02:05:51;;;;;;;4.60;3.60;;;;;;;9.47;58.02;95456.56;5040893;28;20198;-84
2023/02/22 02:08:27;;;;;;;5.00;3.40;;;;;;;9.42;57.98;95458.06;5030758;28;20198;-84
2023/02/22 02:10:56;;;;;;;5.50;3.43;;;;;;;9.33;57.93;95454.75;5039330;28;20250;-84
2023/02/22 02:13:24;;;;;;;3.97;3.23;;;;;;;9.26;58.31;95453.81;5049943;28;20228;-84
2023/02/22 02:15:54;;;;;;;3.60;3.13;;;;;;;9.26;58.15;95451.25;5041795;28;20206;-84
2023/02/22 02:18:20;;;;;;;6.03;3.13;;;;;;;9.25;57.77;95447.09;5029813;28;20646;-84
2023/02/22 02:21:11;;;;;;;3.90;2.93;;;;;;;9.18;58.23;95449.56;5036169;28;20809;-83
2023/02/22 02:24:02;;;;;;;3.90;3.37;;;;;;;8.97;58.78;95444.22;5049022;28;20232;-84
2023/02/22 02:26:51;;;;;;;4.30;3.03;;;;;;;9.10;58.54;95436.75;5036885;28;20220;-84
2023/02/22 02:29:44;;;;;;;5.10;3.30;;;;;;;9.13;58.08;95433.06;5049681;28;20201;-84
2023/02/22 02:32:33;;;;;;;6.30;3.17;;;;;;;9.14;57.72;95426.94;4996000;28;20221;-84
2023/02/22 02:35:06;;;;;;;5.63;3.00;;;;;;;9.14;57.64;95432.09;5028649;28;20190;-84
2023/02/22 02:37:41;;;;;;;4.30;2.87;;;;;;;9.10;57.73;95423.91;5045279;28;20271;-84
2023/02/22 02:40:17;;;;;;;4.47;2.97;;;;;;;9.13;57.38;95418.44;5049316;28;20201;-84
2023/02/22 02:42:54;;;;;;;4.97;2.70;;;;;;;9.19;57.00;95417.78;5047263;28;20244;-84
2023/02/22 02:45:27;;;;;;;4.40;2.50;;;;;;;9.29;56.81;95412.38;5048774;28;20205;-84
2023/02/22 02:47:58;;;;;;;3.90;2.70;;;;;;;9.37;56.58;95406.41;5047466;28;20196;-84
2023/02/22 02:50:29;;;;;;;4.03;2.90;;;;;;;9.24;56.72;95407.75;5049323;28;20236;-84
2023/02/22 02:53:00;;;;;;;4.60;3.03;;;;;;;9.25;56.83;95404.22;5054278;28;20217;-84
2023/02/22 02:55:28;;;;;;;2.87;2.53;;;;;;;9.31;56.58;95400.16;5031520;28;20664;-84
2023/02/22 02:57:54;;;;;;;4.10;2.50;;;;;;;9.27;56.84;95397.13;5036293;28;20247;-84
2023/02/22 03:00:26;;;;;;;3.03;2.57;;;;;;;9.31;56.24;95398.41;5046429;28;20208;-84
2023/02/22 03:03:06;;;;;;;4.13;2.40;;;;;;;9.22;56.39;95398.66;5033634;28;20589;-84
2023/02/22 03:05:51;;;;;;;3.47;2.43;;;;;;;9.23;56.66;95395.91;5039139;28;20285;-84
2023/02/22 03:08:24;;;;;;;2.63;2.43;;;;;;;9.24;56.29;95397.47;5038399;28;20297;-84
2023/02/22 03:11:01;;;;;;;3.00;2.10;;;;;;;9.28;56.21;95397.94;5030462;28;20203;-84
2023/02/22 03:13:35;;;;;;;2.50;2.27;;;;;;;9.18;56.81;95397.38;5048937;28;20769;-83
2023/02/22 03:16:10;;;;;;;3.00;2.63;;;;;;;9.13;56.38;95397.09;5045302;28;20198;-84
2023/02/22 03:18:49;;;;;;;3.90;2.47;;;;;;;9.22;56.38;95390.94;5037400;28;20208;-84
2023/02/22 03:21:24;;;;;;;2.30;2.10;;;;;;;9.16;56.63;95402.69;5029930;28;20694;-84
2023/02/22 03:23:59;;;;;;;3.03;2.43;;;;;;;9.18;56.71;95387.13;5031560;28;20213;-84
2023/02/22 03:26:31;;;;;;;3.23;2.67;;;;;;;9.20;56.40;95398.81;5043053;28;20193;-84
2023/02/22 03:29:01;;;;;;;2.27;2.07;;;;;;;9.20;56.40;95392.88;5028113;28;20213;-84
2023/02/22 03:31:31;;;;;;;5.30;2.47;;;;;;;9.22;56.16;95404.59;5032400;28;20201;-84
2023/02/22 03:34:05;;;;;;;2.70;2.50;;;;;;;9.27;56.09;95394.56;5047772;28;20221;-84
2023/02/22 03:36:37;;;;;;;32.40;21.40;;;;;;;9.25;56.48;95404.22;5044073;28;20203;-83
2023/02/22 03:39:07;;;;;;;16.77;11.63;;;;;;;9.35;55.96;95406.56;5028086;28;20214;-83
2023/02/22 03:41:38;;;;;;;5.53;4.70;;;;;;;9.42;56.14;95411.81;5045837;28;20224;-84
2023/02/22 03:44:08;;;;;;;4.93;3.10;;;;;;;9.45;55.92;95411.44;5047765;28;20226;-84
2023/02/22 03:46:37;;;;;;;3.27;2.50;;;;;;;9.49;55.58;95417.84;5046726;28;20293;-84
2023/02/22 03:49:12;;;;;;;2.80;2.30;;;;;;;9.49;55.17;95415.28;5047176;28;20202;-84
2023/02/22 03:51:39;;;;;;;4.03;2.43;;;;;;;9.38;55.75;95415.69;5037294;28;20210;-83
2023/02/22 03:54:06;;;;;;;2.73;2.33;;;;;;;9.31;56.23;95410.44;5027790;28;20222;-84
2023/02/22 03:56:37;;;;;;;2.50;2.30;;;;;;;9.27;56.28;95416.88;5036750;28;20205;-84
2023/02/22 03:59:06;;;;;;;2.97;2.43;;;;;;;9.26;55.86;95413.53;5047916;28;20193;-84
2023/02/22 04:01:32;;;;;;;3.00;2.50;;;;;;;9.16;56.14;95405.25;5039842;28;20221;-84
2023/02/22 04:03:59;;;;;;;3.57;2.87;;;;;;;9.17;56.17;95408.63;5035749;28;20224;-84
2023/02/22 04:06:28;;;;;;;2.77;2.50;;;;;;;9.16;56.43;95405.25;5034513;28;20285;-84
2023/02/22 04:08:54;;;;;;;3.23;2.30;;;;;;;8.90;57.27;95410.72;5027281;28;20201;-84
2023/02/22 04:11:21;;;;;;;2.70;2.50;;;;;;;8.92;57.19;95401.09;5038576;28;20201;-84
2023/02/22 04:13:47;;;;;;;8.40;2.97;;;;;;;8.96;56.93;95402.34;5046847;28;20575;-84
2023/02/22 04:16:14;;;;;;;4.20;2.87;;;;;;;8.49;58.24;95392.19;5038060;28;20244;-84
2023/02/22 04:18:40;;;;;;;4.17;2.70;;;;;;;8.18;59.59;95399.84;5028159;28;20199;-84
2023/02/22 04:21:07;;;;;;;4.17;2.60;;;;;;;7.73;61.48;95400.44;5027739;28;20206;-84
2023/02/22 04:23:35;;;;;;;3.50;2.53;;;;;;;7.66;61.14;95404.63;5027323;28;20222;-84
2023/02/22 04:26:02;;;;;;;2.90;2.43;;;;;;;7.80;61.05;95392.91;5038211;28;20202;-84
2023/02/22 04:28:28;;;;;;;3.10;2.47;;;;;;;7.92;60.96;95394.16;5048689;28;20297;-83
2023/02/22 04:30:55;;;;;;;3.97;2.60;;;;;;;8.08;60.08;95396.66;5046760;28;20220;-83
2023/02/22 04:33:21;;;;;;;4.70;2.53;;;;;;;8.10;60.47;95394.72;5048450;28;20764;-84
2023/02/22 04:35:47;;;;;;;2.90;2.60;;;;;;;8.11;60.07;95392.97;5040182;28;20198;-83
2023/02/22 04:38:14;;;;;;;5.83;2.30;;;;;;;8.20;59.60;95392.78;5047525;28;20678;-83
2023/02/22 04:40:42;;;;;;;4.00;2.70;;;;;;;8.25;59.48;95387.97;5047948;28;20255;-84
2023/02/22 04:43:08;;;;;;;4.50;2.50;;;;;;;8.27;59.48;95390.34;5048576;28;20228;-84
2023/02/22 04:45:35;;;;;;;5.93;2.60;;;;;;;8.34;59.17;95385.38;5044543;28;20193;-83
2023/02/22 04:48:01;;;;;;;3.90;2.80;;;;;;;8.34;59.23;95388.75;5042313;28;20198;-83
2023/02/22 04:50:28;;;;;;;3.90;2.83;;;;;;;8.37;59.34;95379.91;5041780;28;20198;-84
2023/02/22 04:52:55;;;;;;;5.90;3.20;;;;;;;8.33;59.78;95379.44;5027241;28;20244;-83
2023/02/22 04:55:21;;;;;;;6.77;3.50;;;;;;;8.26;59.67;95381.06;5037405;28;20198;-83
2023/02/22 04:57:49;;;;;;;3.93;2.90;;;;;;;8.24;59.86;95383.78;5039045;28;20234;-84
2023/02/22 05:00:17;;;;;;;5.17;3.00;;;;;;;8.21;59.05;95381.56;5027732;28;20213;-84
2023/02/22 05:02:44;;;;;;;4.87;3.00;;;;;;;8.18;59.20;95389.59;5039457;28;20233;-83
2023/02/22 05:05:11;;;;;;;5.20;2.60;;;;;;;8.00;59.87;95381.31;5038041;28;20193;-83
2023/02/22 05:07:37;;;;;;;4.60;3.40;;;;;;;7.63;60.85;95376.78;5037455;28;20201;-83
2023/02/22 05:10:04;;;;;;;3.87;2.97;;;;;;;7.47;61.64;95381.94;5038792;28;20603;-84
2023/02/22 05:12:30;;;;;;;3.27;2.90;;;;;;;7.34;62.06;95373.91;5037800;28;20229;-84
2023/02/22 05:14:58;;;;;;;3.07;2.77;;;;;;;7.43;62.18;95381.44;5027931;28;20190;-84
2023/02/22 05:17:25;;;;;;;4.77;2.90;;;;;;;7.53;61.88;95376.94;5034468;28;20194;-83
2023/02/22 05:19:51;;;;;;;4.00;2.63;;;;;;;7.51;62.01;95378.06;5038762;28;20200;-83
2023/02/22 05:22:18;;;;;;;3.43;2.90;;;;;;;7.64;64.57;95373.25;5054334;28;20221;-84
2023/02/22 05:24:44;;;;;;;3.00;2.70;;;;;;;7.82;61.55;95371.28;5047679;28;20197;-83
2023/02/22 05:27:11;;;;;;;3.80;3.10;;;;;;;7.83;60.94;95374.63;5041727;28;20197;-83
2023/02/22 05:29:38;;;;;;;3.20;2.90;;;;;;;7.85;60.96;95365.81;5042406;28;20255;-83
2023/02/22 05:32:06;;;;;;;6.10;2.80;;;;;;;7.86;60.79;95367.44;5036163;28;20240;-83
2023/02/22 05:34:32;;;;;;;6.67;3.00;;;;;;;7.86;61.04;95364.06;5039707;28;20244;-83
2023/02/22 05:36:59;;;;;;;4.80;2.70;;;;;;;7.92;60.32;95364.19;5030379;28;20194;-83
2023/02/22 05:39:25;;;;;;;5.50;2.90;;;;;;;7.99;60.53;95366.91;5048294;28;20193;-84
2023/02/22 05:41:55;;;;;;;4.83;2.57;;;;;;;7.98;60.46;95363.53;5027541;28;20201;-88
2023/02/22 05:55:28;;;;;;;;;;;;;;;;;;;;;
2023/02/22 05:58:10;;;;;;;4.07;3.43;;;;;;;8.09;60.06;95351.31;5005883;28;20210;-88
2023/02/22 08:10:19;;;;;;;4.90;2.90;;;;;;;14.73;40.52;95358.47;5005639;28;20272;-89
2023/02/22 08:19:09;;;;;;;11.30;3.03;;;;;;;15.35;39.93;95349.09;4939176;28;20283;-90
2023/02/22 08:21:49;;;;;;;13.52;3.38;;;;;;;15.65;39.86;95354.44;4996536;28;20214;-89
2023/02/22 08:31:21;;;;;;;5.75;3.20;;;;;;;16.69;37.64;95341.34;4902676;28;20696;-90
2023/02/22 08:38:26;;;;;;;4.60;2.70;;;;;;;16.78;37.67;95328.81;4976612;28;20207;-91
2023/02/22 22:59:21;;;;;;;10.43;9.33;;;;;;;11.86;56.16;95197.97;4872544;29;20812;-90
2023/02/22 23:01:47;;;;;;;12.60;9.60;;;;;;;11.83;56.15;95200.94;4943068;29;20233;-90
2023/02/22 23:04:55;;;;;;;11.03;9.73;;;;;;;11.81;56.59;95206.28;4947633;29;20582;-91
2023/02/22 23:07:39;;;;;;;11.37;10.17;;;;;;;11.81;57.04;95210.66;4879186;29;20246;-90
2023/02/22 23:41:12;;;;;;;11.93;10.23;;;;;;;11.49;59.59;95219.81;4815805;29;20308;-90
2023/02/22 23:56:12;;;;;;;;;;;;;;;;;;;;;
